sensor_id;sensor_type;location;lat;lon;timestamp;temperature;humidity
23991;DHT22;12205;50.600;4.608;2023-07-24T00:00:46;18.80;99.90
23991;DHT22;12205;50.600;4.608;2023-07-24T00:03:13;18.80;99.90
23991;DHT22;12205;50.600;4.608;2023-07-24T00:05:40;18.80;99.90
23991;DHT22;12205;50.600;4.608;2023-07-24T00:08:07;18.80;99.90
23991;DHT22;12205;50.600;4.608;2023-07-24T00:10:34;18.80;99.90
23991;DHT22;12205;50.600;4.608;2023-07-24T00:13:01;18.80;99.90
23991;DHT22;12205;50.600;4.608;2023-07-24T00:15:28;18.80;99.90
23991;DHT22;12205;50.600;4.608;2023-07-24T00:17:57;18.80;99.90
23991;DHT22;12205;50.600;4.608;2023-07-24T00:20:24;18.80;99.90
23991;DHT22;12205;50.600;4.608;2023-07-24T00:22:51;18.80;99.90
23991;DHT22;12205;50.600;4.608;2023-07-24T00:25:18;18.80;99.90
23991;DHT22;12205;50.600;4.608;2023-07-24T00:27:45;18.80;99.90
23991;DHT22;12205;50.600;4.608;2023-07-24T00:30:13;18.80;99.90
23991;DHT22;12205;50.600;4.608;2023-07-24T00:32:40;18.80;99.90
23991;DHT22;12205;50.600;4.608;2023-07-24T00:35:08;18.80;99.90
23991;DHT22;12205;50.600;4.608;2023-07-24T00:37:36;18.90;99.90
23991;DHT22;12205;50.600;4.608;2023-07-24T00:40:04;19.00;99.90
23991;DHT22;12205;50.600;4.608;2023-07-24T00:42:32;19.00;99.90
23991;DHT22;12205;50.600;4.608;2023-07-24T00:44:59;19.00;99.90
23991;DHT22;12205;50.600;4.608;2023-07-24T00:47:27;19.00;99.90
23991;DHT22;12205;50.600;4.608;2023-07-24T00:49:54;19.00;99.90
23991;DHT22;12205;50.600;4.608;2023-07-24T00:52:24;19.00;99.90
23991;DHT22;12205;50.600;4.608;2023-07-24T00:54:53;19.00;99.90
23991;DHT22;12205;50.600;4.608;2023-07-24T00:57:20;19.00;99.90
23991;DHT22;12205;50.600;4.608;2023-07-24T00:59:48;19.00;99.90
23991;DHT22;12205;50.600;4.608;2023-07-24T01:02:16;19.00;99.90
23991;DHT22;12205;50.600;4.608;2023-07-24T01:04:44;19.00;99.90
23991;DHT22;12205;50.600;4.608;2023-07-24T01:07:13;19.00;99.90
23991;DHT22;12205;50.600;4.608;2023-07-24T01:09:44;19.00;99.90
23991;DHT22;12205;50.600;4.608;2023-07-24T01:12:18;18.90;99.90
23991;DHT22;12205;50.600;4.608;2023-07-24T01:14:54;18.90;99.90
23991;DHT22;12205;50.600;4.608;2023-07-24T01:17:25;18.80;99.90
23991;DHT22;12205;50.600;4.608;2023-07-24T01:19:59;18.80;99.90
23991;DHT22;12205;50.600;4.608;2023-07-24T01:22:38;18.70;99.90
23991;DHT22;12205;50.600;4.608;2023-07-24T01:25:17;18.70;99.90
23991;DHT22;12205;50.600;4.608;2023-07-24T01:27:51;18.70;99.90
23991;DHT22;12205;50.600;4.608;2023-07-24T01:30:19;18.60;99.90
23991;DHT22;12205;50.600;4.608;2023-07-24T01:32:47;18.50;99.90
23991;DHT22;12205;50.600;4.608;2023-07-24T01:35:16;18.40;99.90
23991;DHT22;12205;50.600;4.608;2023-07-24T01:37:44;18.40;99.90
23991;DHT22;12205;50.600;4.608;2023-07-24T01:40:13;18.30;99.90
23991;DHT22;12205;50.600;4.608;2023-07-24T01:42:41;18.40;99.90
23991;DHT22;12205;50.600;4.608;2023-07-24T01:45:10;18.30;99.90
23991;DHT22;12205;50.600;4.608;2023-07-24T01:47:38;18.30;99.90
23991;DHT22;12205;50.600;4.608;2023-07-24T01:50:06;18.20;99.90
23991;DHT22;12205;50.600;4.608;2023-07-24T01:52:34;18.20;99.90
23991;DHT22;12205;50.600;4.608;2023-07-24T01:55:01;18.20;99.90
23991;DHT22;12205;50.600;4.608;2023-07-24T01:57:28;18.20;99.90
23991;DHT22;12205;50.600;4.608;2023-07-24T01:59:55;18.20;99.90
23991;DHT22;12205;50.600;4.608;2023-07-24T02:02:24;18.20;99.90
23991;DHT22;12205;50.600;4.608;2023-07-24T02:04:51;18.30;99.90
23991;DHT22;12205;50.600;4.608;2023-07-24T02:07:18;18.30;99.90
23991;DHT22;12205;50.600;4.608;2023-07-24T02:09:45;18.30;99.90
23991;DHT22;12205;50.600;4.608;2023-07-24T02:12:12;18.20;99.90
23991;DHT22;12205;50.600;4.608;2023-07-24T02:14:39;18.20;99.90
23991;DHT22;12205;50.600;4.608;2023-07-24T02:17:06;18.20;99.90
23991;DHT22;12205;50.600;4.608;2023-07-24T02:19:35;18.20;99.90
23991;DHT22;12205;50.600;4.608;2023-07-24T02:22:02;18.20;99.90
23991;DHT22;12205;50.600;4.608;2023-07-24T02:24:33;18.20;99.90
23991;DHT22;12205;50.600;4.608;2023-07-24T02:27:00;18.10;99.90
23991;DHT22;12205;50.600;4.608;2023-07-24T02:29:30;18.10;99.90
23991;DHT22;12205;50.600;4.608;2023-07-24T02:31:58;18.10;99.90
23991;DHT22;12205;50.600;4.608;2023-07-24T02:34:26;18.10;99.90
23991;DHT22;12205;50.600;4.608;2023-07-24T02:36:55;18.10;99.90
23991;DHT22;12205;50.600;4.608;2023-07-24T02:39:22;18.10;99.90
23991;DHT22;12205;50.600;4.608;2023-07-24T02:41:49;18.10;99.90
23991;DHT22;12205;50.600;4.608;2023-07-24T02:44:17;18.10;99.90
23991;DHT22;12205;50.600;4.608;2023-07-24T02:46:44;18.10;99.90
23991;DHT22;12205;50.600;4.608;2023-07-24T02:49:11;18.10;99.90
23991;DHT22;12205;50.600;4.608;2023-07-24T02:51:38;18.00;99.90
23991;DHT22;12205;50.600;4.608;2023-07-24T02:54:06;18.00;99.90
23991;DHT22;12205;50.600;4.608;2023-07-24T02:56:33;18.00;99.90
23991;DHT22;12205;50.600;4.608;2023-07-24T02:59:01;17.90;99.90
23991;DHT22;12205;50.600;4.608;2023-07-24T03:01:28;17.90;99.90
23991;DHT22;12205;50.600;4.608;2023-07-24T03:03:55;17.90;99.90
23991;DHT22;12205;50.600;4.608;2023-07-24T03:06:22;17.90;99.90
23991;DHT22;12205;50.600;4.608;2023-07-24T03:08:49;18.00;99.90
23991;DHT22;12205;50.600;4.608;2023-07-24T03:11:18;17.90;99.90
23991;DHT22;12205;50.600;4.608;2023-07-24T03:13:45;17.90;99.90
23991;DHT22;12205;50.600;4.608;2023-07-24T03:16:12;17.90;99.90
23991;DHT22;12205;50.600;4.608;2023-07-24T03:18:39;17.80;99.90
23991;DHT22;12205;50.600;4.608;2023-07-24T03:21:06;17.90;99.90
23991;DHT22;12205;50.600;4.608;2023-07-24T03:23:33;17.90;99.90
23991;DHT22;12205;50.600;4.608;2023-07-24T03:26:01;17.90;99.90
23991;DHT22;12205;50.600;4.608;2023-07-24T03:28:29;18.00;99.90
23991;DHT22;12205;50.600;4.608;2023-07-24T03:30:56;17.90;99.90
23991;DHT22;12205;50.600;4.608;2023-07-24T03:33:23;17.90;99.90
23991;DHT22;12205;50.600;4.608;2023-07-24T03:35:50;17.90;99.90
23991;DHT22;12205;50.600;4.608;2023-07-24T03:38:18;18.00;99.90
23991;DHT22;12205;50.600;4.608;2023-07-24T03:40:45;17.90;99.90
23991;DHT22;12205;50.600;4.608;2023-07-24T03:43:13;17.90;99.90
23991;DHT22;12205;50.600;4.608;2023-07-24T03:45:41;17.90;99.90
23991;DHT22;12205;50.600;4.608;2023-07-24T03:48:09;17.90;99.90
23991;DHT22;12205;50.600;4.608;2023-07-24T03:50:36;17.90;99.90
23991;DHT22;12205;50.600;4.608;2023-07-24T03:53:03;17.90;99.90
23991;DHT22;12205;50.600;4.608;2023-07-24T03:55:30;17.90;99.90
23991;DHT22;12205;50.600;4.608;2023-07-24T03:57:57;17.90;99.90
23991;DHT22;12205;50.600;4.608;2023-07-24T04:00:24;17.90;99.90
23991;DHT22;12205;50.600;4.608;2023-07-24T04:02:53;17.90;99.90
23991;DHT22;12205;50.600;4.608;2023-07-24T04:05:20;17.90;99.90
23991;DHT22;12205;50.600;4.608;2023-07-24T04:07:47;17.90;99.90
23991;DHT22;12205;50.600;4.608;2023-07-24T04:10:14;17.90;99.90
23991;DHT22;12205;50.600;4.608;2023-07-24T04:12:41;17.80;99.90
23991;DHT22;12205;50.600;4.608;2023-07-24T04:15:09;17.80;99.90
23991;DHT22;12205;50.600;4.608;2023-07-24T04:17:36;17.80;99.90
23991;DHT22;12205;50.600;4.608;2023-07-24T04:20:07;17.80;99.90
23991;DHT22;12205;50.600;4.608;2023-07-24T04:22:35;17.90;99.90
23991;DHT22;12205;50.600;4.608;2023-07-24T04:25:02;17.80;99.90
23991;DHT22;12205;50.600;4.608;2023-07-24T04:27:30;17.80;99.90
23991;DHT22;12205;50.600;4.608;2023-07-24T04:29:57;17.80;99.90
23991;DHT22;12205;50.600;4.608;2023-07-24T04:32:26;17.90;99.90
23991;DHT22;12205;50.600;4.608;2023-07-24T04:34:53;17.90;99.90
23991;DHT22;12205;50.600;4.608;2023-07-24T04:37:22;17.90;99.90
23991;DHT22;12205;50.600;4.608;2023-07-24T04:39:49;17.90;99.90
23991;DHT22;12205;50.600;4.608;2023-07-24T04:42:16;17.90;99.90
23991;DHT22;12205;50.600;4.608;2023-07-24T04:44:43;17.90;99.90
23991;DHT22;12205;50.600;4.608;2023-07-24T04:47:10;17.90;99.90
23991;DHT22;12205;50.600;4.608;2023-07-24T04:49:37;17.90;99.90
23991;DHT22;12205;50.600;4.608;2023-07-24T04:52:05;17.90;99.90
23991;DHT22;12205;50.600;4.608;2023-07-24T04:54:33;17.90;99.90
23991;DHT22;12205;50.600;4.608;2023-07-24T04:57:00;18.00;99.90
23991;DHT22;12205;50.600;4.608;2023-07-24T04:59:28;17.90;99.90
23991;DHT22;12205;50.600;4.608;2023-07-24T05:01:55;17.80;99.90
23991;DHT22;12205;50.600;4.608;2023-07-24T05:04:22;17.80;99.90
23991;DHT22;12205;50.600;4.608;2023-07-24T05:06:49;17.80;99.90
23991;DHT22;12205;50.600;4.608;2023-07-24T05:09:16;17.80;99.90
23991;DHT22;12205;50.600;4.608;2023-07-24T05:11:45;17.80;99.90
23991;DHT22;12205;50.600;4.608;2023-07-24T05:14:12;17.80;99.90
23991;DHT22;12205;50.600;4.608;2023-07-24T05:16:39;17.80;99.90
23991;DHT22;12205;50.600;4.608;2023-07-24T05:19:06;17.80;99.90
23991;DHT22;12205;50.600;4.608;2023-07-24T05:21:33;17.80;99.90
23991;DHT22;12205;50.600;4.608;2023-07-24T05:24:00;17.70;99.90
23991;DHT22;12205;50.600;4.608;2023-07-24T05:26:27;17.80;99.90
23991;DHT22;12205;50.600;4.608;2023-07-24T05:28:55;17.70;99.90
23991;DHT22;12205;50.600;4.608;2023-07-24T05:31:22;17.80;99.90
23991;DHT22;12205;50.600;4.608;2023-07-24T05:33:49;17.70;99.90
23991;DHT22;12205;50.600;4.608;2023-07-24T05:36:16;17.70;99.90
23991;DHT22;12205;50.600;4.608;2023-07-24T05:38:44;17.60;99.90
23991;DHT22;12205;50.600;4.608;2023-07-24T05:41:11;17.60;99.90
23991;DHT22;12205;50.600;4.608;2023-07-24T05:43:38;17.50;99.90
23991;DHT22;12205;50.600;4.608;2023-07-24T05:46:06;17.50;99.90
23991;DHT22;12205;50.600;4.608;2023-07-24T05:48:33;17.50;99.90
23991;DHT22;12205;50.600;4.608;2023-07-24T05:51:00;17.60;99.90
23991;DHT22;12205;50.600;4.608;2023-07-24T05:53:27;17.50;99.90
23991;DHT22;12205;50.600;4.608;2023-07-24T05:55:58;17.60;99.90
23991;DHT22;12205;50.600;4.608;2023-07-24T05:58:26;17.60;99.90
23991;DHT22;12205;50.600;4.608;2023-07-24T06:00:54;17.70;99.90
23991;DHT22;12205;50.600;4.608;2023-07-24T06:03:23;17.70;99.90
23991;DHT22;12205;50.600;4.608;2023-07-24T06:05:51;17.70;99.90
23991;DHT22;12205;50.600;4.608;2023-07-24T06:08:19;17.70;99.90
23991;DHT22;12205;50.600;4.608;2023-07-24T06:10:47;17.80;99.90
23991;DHT22;12205;50.600;4.608;2023-07-24T06:13:14;17.80;99.90
23991;DHT22;12205;50.600;4.608;2023-07-24T06:15:42;17.80;99.90
23991;DHT22;12205;50.600;4.608;2023-07-24T06:18:09;17.80;99.90
23991;DHT22;12205;50.600;4.608;2023-07-24T06:20:38;17.90;99.90
23991;DHT22;12205;50.600;4.608;2023-07-24T06:23:05;17.80;99.90
23991;DHT22;12205;50.600;4.608;2023-07-24T06:25:32;18.00;99.90
23991;DHT22;12205;50.600;4.608;2023-07-24T06:27:59;17.90;99.90
23991;DHT22;12205;50.600;4.608;2023-07-24T06:30:26;18.00;99.90
23991;DHT22;12205;50.600;4.608;2023-07-24T06:32:53;18.10;99.90
23991;DHT22;12205;50.600;4.608;2023-07-24T06:35:20;18.20;99.90
23991;DHT22;12205;50.600;4.608;2023-07-24T06:37:49;18.20;99.90
23991;DHT22;12205;50.600;4.608;2023-07-24T06:40:16;18.20;99.90
23991;DHT22;12205;50.600;4.608;2023-07-24T06:42:44;18.30;99.90
23991;DHT22;12205;50.600;4.608;2023-07-24T06:45:12;18.30;99.90
23991;DHT22;12205;50.600;4.608;2023-07-24T06:47:39;18.40;99.90
23991;DHT22;12205;50.600;4.608;2023-07-24T06:50:07;18.40;99.90
23991;DHT22;12205;50.600;4.608;2023-07-24T06:52:34;18.50;99.90
23991;DHT22;12205;50.600;4.608;2023-07-24T06:55:03;18.60;99.90
23991;DHT22;12205;50.600;4.608;2023-07-24T06:57:31;18.60;99.90
23991;DHT22;12205;50.600;4.608;2023-07-24T06:59:58;18.60;99.90
23991;DHT22;12205;50.600;4.608;2023-07-24T07:02:26;18.70;99.90
23991;DHT22;12205;50.600;4.608;2023-07-24T07:04:54;18.70;99.90
23991;DHT22;12205;50.600;4.608;2023-07-24T07:07:21;18.80;99.90
23991;DHT22;12205;50.600;4.608;2023-07-24T07:09:48;18.90;99.90
23991;DHT22;12205;50.600;4.608;2023-07-24T07:12:16;18.90;99.90
23991;DHT22;12205;50.600;4.608;2023-07-24T07:14:43;19.00;99.90
23991;DHT22;12205;50.600;4.608;2023-07-24T07:17:10;18.90;99.90
23991;DHT22;12205;50.600;4.608;2023-07-24T07:19:38;18.90;99.90
23991;DHT22;12205;50.600;4.608;2023-07-24T07:22:05;18.80;99.90
23991;DHT22;12205;50.600;4.608;2023-07-24T07:24:33;18.80;99.90
23991;DHT22;12205;50.600;4.608;2023-07-24T07:27:00;18.80;99.90
23991;DHT22;12205;50.600;4.608;2023-07-24T07:29:28;18.90;99.90
23991;DHT22;12205;50.600;4.608;2023-07-24T07:31:56;19.00;99.90
23991;DHT22;12205;50.600;4.608;2023-07-24T07:34:23;19.20;99.90
23991;DHT22;12205;50.600;4.608;2023-07-24T07:36:51;19.30;99.90
23991;DHT22;12205;50.600;4.608;2023-07-24T07:39:18;19.40;99.90
23991;DHT22;12205;50.600;4.608;2023-07-24T07:41:45;19.40;99.90
23991;DHT22;12205;50.600;4.608;2023-07-24T07:44:12;19.40;99.90
23991;DHT22;12205;50.600;4.608;2023-07-24T07:46:41;19.50;99.90
23991;DHT22;12205;50.600;4.608;2023-07-24T07:49:07;19.40;99.90
23991;DHT22;12205;50.600;4.608;2023-07-24T07:51:34;19.50;99.90
23991;DHT22;12205;50.600;4.608;2023-07-24T07:54:01;19.50;99.90
23991;DHT22;12205;50.600;4.608;2023-07-24T07:56:28;19.60;99.90
23991;DHT22;12205;50.600;4.608;2023-07-24T07:58:55;19.60;99.90
23991;DHT22;12205;50.600;4.608;2023-07-24T08:01:22;19.70;99.90
23991;DHT22;12205;50.600;4.608;2023-07-24T08:03:51;19.80;99.90
23991;DHT22;12205;50.600;4.608;2023-07-24T08:06:18;19.90;99.90
23991;DHT22;12205;50.600;4.608;2023-07-24T08:08:46;20.00;99.90
23991;DHT22;12205;50.600;4.608;2023-07-24T08:11:14;20.10;99.90
23991;DHT22;12205;50.600;4.608;2023-07-24T08:13:41;20.00;99.90
23991;DHT22;12205;50.600;4.608;2023-07-24T08:16:13;20.20;99.90
23991;DHT22;12205;50.600;4.608;2023-07-24T08:18:44;20.20;99.90
23991;DHT22;12205;50.600;4.608;2023-07-24T08:21:13;20.30;99.90
23991;DHT22;12205;50.600;4.608;2023-07-24T08:23:40;20.40;99.90
23991;DHT22;12205;50.600;4.608;2023-07-24T08:26:07;20.50;99.90
23991;DHT22;12205;50.600;4.608;2023-07-24T08:28:35;20.40;99.90
23991;DHT22;12205;50.600;4.608;2023-07-24T08:31:02;20.40;99.90
23991;DHT22;12205;50.600;4.608;2023-07-24T08:33:29;20.40;99.90
23991;DHT22;12205;50.600;4.608;2023-07-24T08:36:00;20.40;99.90
23991;DHT22;12205;50.600;4.608;2023-07-24T08:38:29;20.30;99.90
23991;DHT22;12205;50.600;4.608;2023-07-24T08:41:04;20.20;99.90
23991;DHT22;12205;50.600;4.608;2023-07-24T08:43:33;20.10;99.90
23991;DHT22;12205;50.600;4.608;2023-07-24T08:46:02;19.90;99.90
23991;DHT22;12205;50.600;4.608;2023-07-24T08:48:32;19.90;99.90
23991;DHT22;12205;50.600;4.608;2023-07-24T08:51:02;19.80;99.90
23991;DHT22;12205;50.600;4.608;2023-07-24T08:53:32;19.70;99.90
23991;DHT22;12205;50.600;4.608;2023-07-24T08:56:02;19.80;99.90
23991;DHT22;12205;50.600;4.608;2023-07-24T08:58:30;19.70;99.90
23991;DHT22;12205;50.600;4.608;2023-07-24T09:00:57;19.60;99.90
23991;DHT22;12205;50.600;4.608;2023-07-24T09:03:25;19.40;99.90
23991;DHT22;12205;50.600;4.608;2023-07-24T09:05:53;19.50;99.90
23991;DHT22;12205;50.600;4.608;2023-07-24T09:08:28;19.50;99.90
23991;DHT22;12205;50.600;4.608;2023-07-24T09:10:57;19.60;99.90
23991;DHT22;12205;50.600;4.608;2023-07-24T09:13:25;19.60;99.90
23991;DHT22;12205;50.600;4.608;2023-07-24T09:15:52;19.70;99.90
23991;DHT22;12205;50.600;4.608;2023-07-24T09:18:20;19.60;99.90
23991;DHT22;12205;50.600;4.608;2023-07-24T09:20:47;19.50;99.90
23991;DHT22;12205;50.600;4.608;2023-07-24T09:23:15;19.40;99.90
23991;DHT22;12205;50.600;4.608;2023-07-24T09:25:44;19.40;99.90
23991;DHT22;12205;50.600;4.608;2023-07-24T09:28:12;19.30;99.90
23991;DHT22;12205;50.600;4.608;2023-07-24T09:30:41;19.40;99.90
23991;DHT22;12205;50.600;4.608;2023-07-24T09:33:17;19.60;99.90
23991;DHT22;12205;50.600;4.608;2023-07-24T09:35:44;19.60;99.90
23991;DHT22;12205;50.600;4.608;2023-07-24T09:38:12;19.50;99.90
23991;DHT22;12205;50.600;4.608;2023-07-24T09:40:40;19.20;99.90
23991;DHT22;12205;50.600;4.608;2023-07-24T09:43:17;19.00;99.90
23991;DHT22;12205;50.600;4.608;2023-07-24T09:45:45;18.70;99.90
23991;DHT22;12205;50.600;4.608;2023-07-24T09:48:14;18.60;99.90
23991;DHT22;12205;50.600;4.608;2023-07-24T09:50:44;18.60;99.90
23991;DHT22;12205;50.600;4.608;2023-07-24T09:53:15;18.40;99.90
23991;DHT22;12205;50.600;4.608;2023-07-24T09:55:51;18.20;99.90
23991;DHT22;12205;50.600;4.608;2023-07-24T09:58:24;18.10;99.90
23991;DHT22;12205;50.600;4.608;2023-07-24T10:00:52;18.10;99.90
23991;DHT22;12205;50.600;4.608;2023-07-24T10:03:21;18.10;99.90
23991;DHT22;12205;50.600;4.608;2023-07-24T10:05:49;18.00;99.90
23991;DHT22;12205;50.600;4.608;2023-07-24T10:08:18;17.90;99.90
23991;DHT22;12205;50.600;4.608;2023-07-24T10:10:45;17.80;99.90
23991;DHT22;12205;50.600;4.608;2023-07-24T10:13:16;17.80;99.90
23991;DHT22;12205;50.600;4.608;2023-07-24T10:15:47;17.80;99.90
23991;DHT22;12205;50.600;4.608;2023-07-24T10:18:16;17.80;99.90
23991;DHT22;12205;50.600;4.608;2023-07-24T10:20:44;17.90;99.90
23991;DHT22;12205;50.600;4.608;2023-07-24T10:23:16;18.00;99.90
23991;DHT22;12205;50.600;4.608;2023-07-24T10:25:46;18.00;99.90
23991;DHT22;12205;50.600;4.608;2023-07-24T10:28:17;18.00;99.90
23991;DHT22;12205;50.600;4.608;2023-07-24T10:30:55;17.60;99.90
23991;DHT22;12205;50.600;4.608;2023-07-24T10:33:22;17.60;99.90
23991;DHT22;12205;50.600;4.608;2023-07-24T10:35:53;17.80;99.90
23991;DHT22;12205;50.600;4.608;2023-07-24T10:38:33;17.80;99.90
23991;DHT22;12205;50.600;4.608;2023-07-24T10:41:03;17.90;99.90
23991;DHT22;12205;50.600;4.608;2023-07-24T10:43:40;17.90;99.90
23991;DHT22;12205;50.600;4.608;2023-07-24T10:46:10;17.80;99.90
23991;DHT22;12205;50.600;4.608;2023-07-24T10:48:42;17.90;99.90
23991;DHT22;12205;50.600;4.608;2023-07-24T10:51:10;18.00;99.90
23991;DHT22;12205;50.600;4.608;2023-07-24T10:53:43;18.10;99.90
23991;DHT22;12205;50.600;4.608;2023-07-24T10:56:12;18.20;99.90
23991;DHT22;12205;50.600;4.608;2023-07-24T10:58:39;18.30;99.90
23991;DHT22;12205;50.600;4.608;2023-07-24T11:01:07;18.20;99.90
23991;DHT22;12205;50.600;4.608;2023-07-24T11:03:37;18.40;99.90
23991;DHT22;12205;50.600;4.608;2023-07-24T11:06:12;18.50;99.90
23991;DHT22;12205;50.600;4.608;2023-07-24T11:08:40;18.50;99.90
23991;DHT22;12205;50.600;4.608;2023-07-24T11:11:08;18.70;99.90
23991;DHT22;12205;50.600;4.608;2023-07-24T11:13:35;18.80;99.90
23991;DHT22;12205;50.600;4.608;2023-07-24T11:16:06;18.90;99.90
23991;DHT22;12205;50.600;4.608;2023-07-24T11:18:45;19.10;99.90
23991;DHT22;12205;50.600;4.608;2023-07-24T11:21:13;19.10;99.90
23991;DHT22;12205;50.600;4.608;2023-07-24T11:23:48;19.10;99.90
23991;DHT22;12205;50.600;4.608;2023-07-24T11:26:19;19.00;99.90
23991;DHT22;12205;50.600;4.608;2023-07-24T11:28:47;19.00;99.90
23991;DHT22;12205;50.600;4.608;2023-07-24T11:31:16;18.80;99.90
23991;DHT22;12205;50.600;4.608;2023-07-24T11:33:47;18.80;99.90
23991;DHT22;12205;50.600;4.608;2023-07-24T11:36:16;18.70;99.90
23991;DHT22;12205;50.600;4.608;2023-07-24T11:38:44;18.50;99.90
23991;DHT22;12205;50.600;4.608;2023-07-24T11:41:12;18.60;99.90
23991;DHT22;12205;50.600;4.608;2023-07-24T11:43:46;18.70;99.90
23991;DHT22;12205;50.600;4.608;2023-07-24T11:46:23;18.60;99.90
23991;DHT22;12205;50.600;4.608;2023-07-24T11:48:52;18.70;99.90
23991;DHT22;12205;50.600;4.608;2023-07-24T11:51:22;18.90;99.90
23991;DHT22;12205;50.600;4.608;2023-07-24T11:53:51;19.00;99.90
23991;DHT22;12205;50.600;4.608;2023-07-24T11:56:19;19.20;99.90
23991;DHT22;12205;50.600;4.608;2023-07-24T11:58:47;19.50;99.90
23991;DHT22;12205;50.600;4.608;2023-07-24T12:01:14;19.80;99.90
23991;DHT22;12205;50.600;4.608;2023-07-24T12:03:42;19.90;99.90
23991;DHT22;12205;50.600;4.608;2023-07-24T12:06:15;20.30;99.90
23991;DHT22;12205;50.600;4.608;2023-07-24T12:08:44;20.30;99.90
23991;DHT22;12205;50.600;4.608;2023-07-24T12:11:16;20.60;99.90
23991;DHT22;12205;50.600;4.608;2023-07-24T12:13:44;21.00;99.90
23991;DHT22;12205;50.600;4.608;2023-07-24T12:16:11;21.40;99.90
23991;DHT22;12205;50.600;4.608;2023-07-24T12:18:38;21.90;99.90
23991;DHT22;12205;50.600;4.608;2023-07-24T12:21:05;22.40;99.90
23991;DHT22;12205;50.600;4.608;2023-07-24T12:23:34;22.80;99.90
23991;DHT22;12205;50.600;4.608;2023-07-24T12:26:01;22.80;99.90
23991;DHT22;12205;50.600;4.608;2023-07-24T12:28:28;23.00;99.90
23991;DHT22;12205;50.600;4.608;2023-07-24T12:30:55;23.20;99.90
23991;DHT22;12205;50.600;4.608;2023-07-24T12:33:22;23.60;99.90
23991;DHT22;12205;50.600;4.608;2023-07-24T12:35:50;23.40;99.90
23991;DHT22;12205;50.600;4.608;2023-07-24T12:38:17;23.90;99.90
23991;DHT22;12205;50.600;4.608;2023-07-24T12:40:46;24.30;99.90
23991;DHT22;12205;50.600;4.608;2023-07-24T12:43:15;24.30;99.90
23991;DHT22;12205;50.600;4.608;2023-07-24T12:45:42;24.40;99.90
23991;DHT22;12205;50.600;4.608;2023-07-24T12:48:09;24.40;99.90
23991;DHT22;12205;50.600;4.608;2023-07-24T12:50:36;24.20;99.90
23991;DHT22;12205;50.600;4.608;2023-07-24T12:53:03;24.00;99.90
23991;DHT22;12205;50.600;4.608;2023-07-24T12:55:31;23.60;99.90
23991;DHT22;12205;50.600;4.608;2023-07-24T12:57:59;23.20;99.90
23991;DHT22;12205;50.600;4.608;2023-07-24T13:00:27;22.70;99.90
23991;DHT22;12205;50.600;4.608;2023-07-24T13:02:55;22.40;99.90
23991;DHT22;12205;50.600;4.608;2023-07-24T13:05:22;22.20;99.90
23991;DHT22;12205;50.600;4.608;2023-07-24T13:07:49;22.10;99.90
23991;DHT22;12205;50.600;4.608;2023-07-24T13:10:16;21.90;99.90
23991;DHT22;12205;50.600;4.608;2023-07-24T13:12:43;21.40;99.90
23991;DHT22;12205;50.600;4.608;2023-07-24T13:15:12;21.10;99.90
23991;DHT22;12205;50.600;4.608;2023-07-24T13:17:40;21.00;99.90
23991;DHT22;12205;50.600;4.608;2023-07-24T13:20:08;20.90;99.90
23991;DHT22;12205;50.600;4.608;2023-07-24T13:22:35;20.90;99.90
23991;DHT22;12205;50.600;4.608;2023-07-24T13:25:03;20.70;99.90
23991;DHT22;12205;50.600;4.608;2023-07-24T13:27:30;20.60;99.90
23991;DHT22;12205;50.600;4.608;2023-07-24T13:29:58;20.50;99.90
23991;DHT22;12205;50.600;4.608;2023-07-24T13:32:27;20.30;99.90
23991;DHT22;12205;50.600;4.608;2023-07-24T13:34:55;20.20;99.90
23991;DHT22;12205;50.600;4.608;2023-07-24T13:37:24;20.00;99.90
23991;DHT22;12205;50.600;4.608;2023-07-24T13:39:51;20.00;99.90
23991;DHT22;12205;50.600;4.608;2023-07-24T13:42:18;20.10;99.90
23991;DHT22;12205;50.600;4.608;2023-07-24T13:44:45;20.10;99.90
23991;DHT22;12205;50.600;4.608;2023-07-24T13:47:12;20.00;99.90
23991;DHT22;12205;50.600;4.608;2023-07-24T13:49:41;19.90;99.90
23991;DHT22;12205;50.600;4.608;2023-07-24T13:52:08;19.70;99.90
23991;DHT22;12205;50.600;4.608;2023-07-24T13:54:35;19.90;99.90
23991;DHT22;12205;50.600;4.608;2023-07-24T13:57:02;19.90;99.90
23991;DHT22;12205;50.600;4.608;2023-07-24T13:59:31;20.10;99.90
23991;DHT22;12205;50.600;4.608;2023-07-24T14:01:58;20.10;99.90
23991;DHT22;12205;50.600;4.608;2023-07-24T14:04:25;20.20;99.90
23991;DHT22;12205;50.600;4.608;2023-07-24T14:06:54;20.40;99.90
23991;DHT22;12205;50.600;4.608;2023-07-24T14:09:21;20.70;99.90
23991;DHT22;12205;50.600;4.608;2023-07-24T14:11:48;20.80;99.90
23991;DHT22;12205;50.600;4.608;2023-07-24T14:14:17;21.00;99.90
23991;DHT22;12205;50.600;4.608;2023-07-24T14:16:44;21.20;99.90
23991;DHT22;12205;50.600;4.608;2023-07-24T14:19:11;21.60;99.90
23991;DHT22;12205;50.600;4.608;2023-07-24T14:21:38;22.00;99.90
23991;DHT22;12205;50.600;4.608;2023-07-24T14:24:07;22.50;99.90
23991;DHT22;12205;50.600;4.608;2023-07-24T14:26:34;22.80;99.90
23991;DHT22;12205;50.600;4.608;2023-07-24T14:29:02;23.40;99.90
23991;DHT22;12205;50.600;4.608;2023-07-24T14:31:30;23.80;99.90
23991;DHT22;12205;50.600;4.608;2023-07-24T14:33:57;24.10;99.90
23991;DHT22;12205;50.600;4.608;2023-07-24T14:36:24;24.30;99.90
23991;DHT22;12205;50.600;4.608;2023-07-24T14:38:53;24.50;99.90
23991;DHT22;12205;50.600;4.608;2023-07-24T14:41:22;24.80;99.90
23991;DHT22;12205;50.600;4.608;2023-07-24T14:43:49;24.70;99.90
23991;DHT22;12205;50.600;4.608;2023-07-24T14:46:16;24.60;99.90
23991;DHT22;12205;50.600;4.608;2023-07-24T14:48:43;24.60;99.90
23991;DHT22;12205;50.600;4.608;2023-07-24T14:51:10;24.60;99.90
23991;DHT22;12205;50.600;4.608;2023-07-24T14:53:37;24.60;99.90
23991;DHT22;12205;50.600;4.608;2023-07-24T14:56:04;24.70;99.90
23991;DHT22;12205;50.600;4.608;2023-07-24T14:58:33;24.80;99.90
23991;DHT22;12205;50.600;4.608;2023-07-24T15:01:00;25.00;99.90
23991;DHT22;12205;50.600;4.608;2023-07-24T15:03:27;25.10;99.90
23991;DHT22;12205;50.600;4.608;2023-07-24T15:05:54;25.00;99.90
23991;DHT22;12205;50.600;4.608;2023-07-24T15:08:22;24.60;99.90
23991;DHT22;12205;50.600;4.608;2023-07-24T15:10:49;24.70;99.90
23991;DHT22;12205;50.600;4.608;2023-07-24T15:13:16;24.80;99.90
23991;DHT22;12205;50.600;4.608;2023-07-24T15:15:45;25.20;99.90
23991;DHT22;12205;50.600;4.608;2023-07-24T15:18:12;25.40;99.90
23991;DHT22;12205;50.600;4.608;2023-07-24T15:20:39;25.20;99.90
23991;DHT22;12205;50.600;4.608;2023-07-24T15:23:06;25.20;99.90
23991;DHT22;12205;50.600;4.608;2023-07-24T15:25:33;25.50;99.90
23991;DHT22;12205;50.600;4.608;2023-07-24T15:28:00;25.50;99.90
23991;DHT22;12205;50.600;4.608;2023-07-24T15:30:27;25.40;99.90
23991;DHT22;12205;50.600;4.608;2023-07-24T15:32:56;25.60;99.90
23991;DHT22;12205;50.600;4.608;2023-07-24T15:35:23;25.70;99.90